sensor_id;sensor_type;location;lat;lon;timestamp;P1;durP1;ratioP1;P2;durP2;ratioP2
45909;SDS011;31622;55.416;37.840;2023-05-15T00:02:13;19.90;;;8.75;;
45909;SDS011;31622;55.416;37.840;2023-05-15T00:04:38;16.80;;;7.97;;
45909;SDS011;31622;55.416;37.840;2023-05-15T00:07:04;22.08;;;8.45;;
45909;SDS011;31622;55.416;37.840;2023-05-15T00:09:30;18.20;;;8.15;;
45909;SDS011;31622;55.416;37.840;2023-05-15T00:11:56;17.30;;;7.78;;
45909;SDS011;31622;55.416;37.840;2023-05-15T00:14:23;15.10;;;7.97;;
45909;SDS011;31622;55.416;37.840;2023-05-15T00:16:49;16.52;;;7.80;;
45909;SDS011;31622;55.416;37.840;2023-05-15T00:19:15;13.63;;;7.03;;
45909;SDS011;31622;55.416;37.840;2023-05-15T00:21:41;17.55;;;7.18;;
45909;SDS011;31622;55.416;37.840;2023-05-15T00:24:07;16.67;;;6.90;;
45909;SDS011;31622;55.416;37.840;2023-05-15T00:26:32;16.23;;;6.75;;
45909;SDS011;31622;55.416;37.840;2023-05-15T00:28:58;16.50;;;7.05;;
45909;SDS011;31622;55.416;37.840;2023-05-15T00:31:24;15.93;;;6.75;;
45909;SDS011;31622;55.416;37.840;2023-05-15T00:33:50;17.73;;;6.82;;
45909;SDS011;31622;55.416;37.840;2023-05-15T00:36:16;13.73;;;6.45;;
45909;SDS011;31622;55.416;37.840;2023-05-15T00:38:42;14.15;;;5.93;;
45909;SDS011;31622;55.416;37.840;2023-05-15T00:41:07;16.77;;;6.30;;
45909;SDS011;31622;55.416;37.840;2023-05-15T00:43:35;14.88;;;5.93;;
45909;SDS011;31622;55.416;37.840;2023-05-15T00:46:01;12.77;;;6.10;;
45909;SDS011;31622;55.416;37.840;2023-05-15T00:48:27;15.55;;;7.10;;
45909;SDS011;31622;55.416;37.840;2023-05-15T00:50:54;24.67;;;6.43;;
45909;SDS011;31622;55.416;37.840;2023-05-15T00:53:22;10.90;;;5.47;;
45909;SDS011;31622;55.416;37.840;2023-05-15T00:55:48;11.32;;;5.32;;
45909;SDS011;31622;55.416;37.840;2023-05-15T00:58:16;14.90;;;5.40;;
45909;SDS011;31622;55.416;37.840;2023-05-15T01:00:42;11.13;;;5.57;;
45909;SDS011;31622;55.416;37.840;2023-05-15T01:03:07;15.70;;;5.40;;
45909;SDS011;31622;55.416;37.840;2023-05-15T01:05:33;11.65;;;5.70;;
45909;SDS011;31622;55.416;37.840;2023-05-15T01:08:19;15.25;;;5.88;;
45909;SDS011;31622;55.416;37.840;2023-05-15T01:13:21;16.50;;;6.07;;
45909;SDS011;31622;55.416;37.840;2023-05-15T01:15:50;12.57;;;5.43;;
45909;SDS011;31622;55.416;37.840;2023-05-15T01:18:17;13.45;;;5.72;;
45909;SDS011;31622;55.416;37.840;2023-05-15T01:21:08;15.02;;;5.30;;
45909;SDS011;31622;55.416;37.840;2023-05-15T01:23:43;14.50;;;5.85;;
45909;SDS011;31622;55.416;37.840;2023-05-15T01:29:40;18.27;;;5.78;;
45909;SDS011;31622;55.416;37.840;2023-05-15T01:32:33;15.98;;;5.22;;
45909;SDS011;31622;55.416;37.840;2023-05-15T01:37:43;13.00;;;5.07;;
45909;SDS011;31622;55.416;37.840;2023-05-15T01:40:10;10.00;;;4.43;;
45909;SDS011;31622;55.416;37.840;2023-05-15T01:42:39;11.35;;;5.40;;
45909;SDS011;31622;55.416;37.840;2023-05-15T01:45:07;13.27;;;5.10;;
45909;SDS011;31622;55.416;37.840;2023-05-15T01:47:43;12.45;;;4.93;;
45909;SDS011;31622;55.416;37.840;2023-05-15T01:50:10;10.50;;;5.15;;
45909;SDS011;31622;55.416;37.840;2023-05-15T01:52:40;12.27;;;4.88;;
45909;SDS011;31622;55.416;37.840;2023-05-15T01:55:08;13.57;;;5.05;;
45909;SDS011;31622;55.416;37.840;2023-05-15T01:57:34;16.83;;;5.05;;
45909;SDS011;31622;55.416;37.840;2023-05-15T02:00:00;12.15;;;4.90;;
45909;SDS011;31622;55.416;37.840;2023-05-15T02:02:28;10.30;;;4.78;;
45909;SDS011;31622;55.416;37.840;2023-05-15T02:04:55;11.90;;;5.38;;
45909;SDS011;31622;55.416;37.840;2023-05-15T02:07:21;19.38;;;5.22;;
45909;SDS011;31622;55.416;37.840;2023-05-15T02:09:48;10.88;;;5.57;;
45909;SDS011;31622;55.416;37.840;2023-05-15T02:12:15;14.27;;;5.07;;
45909;SDS011;31622;55.416;37.840;2023-05-15T02:14:41;12.77;;;5.03;;
45909;SDS011;31622;55.416;37.840;2023-05-15T02:17:07;17.52;;;5.55;;
45909;SDS011;31622;55.416;37.840;2023-05-15T02:19:33;15.10;;;5.50;;
45909;SDS011;31622;55.416;37.840;2023-05-15T02:22:01;12.15;;;5.22;;
45909;SDS011;31622;55.416;37.840;2023-05-15T02:24:27;10.60;;;4.50;;
45909;SDS011;31622;55.416;37.840;2023-05-15T02:31:58;12.15;;;5.35;;
45909;SDS011;31622;55.416;37.840;2023-05-15T02:34:38;13.65;;;4.90;;
45909;SDS011;31622;55.416;37.840;2023-05-15T02:37:12;13.38;;;5.10;;
45909;SDS011;31622;55.416;37.840;2023-05-15T02:39:41;12.93;;;5.03;;
45909;SDS011;31622;55.416;37.840;2023-05-15T02:42:06;18.33;;;5.25;;
45909;SDS011;31622;55.416;37.840;2023-05-15T02:44:34;10.85;;;4.88;;
45909;SDS011;31622;55.416;37.840;2023-05-15T02:47:02;11.13;;;5.30;;
45909;SDS011;31622;55.416;37.840;2023-05-15T02:49:29;16.02;;;4.90;;
45909;SDS011;31622;55.416;37.840;2023-05-15T02:51:54;12.70;;;4.63;;
45909;SDS011;31622;55.416;37.840;2023-05-15T02:54:20;10.25;;;4.45;;
45909;SDS011;31622;55.416;37.840;2023-05-15T02:56:46;9.48;;;4.40;;
45909;SDS011;31622;55.416;37.840;2023-05-15T02:59:12;11.50;;;4.47;;
45909;SDS011;31622;55.416;37.840;2023-05-15T03:01:43;9.15;;;4.53;;
45909;SDS011;31622;55.416;37.840;2023-05-15T03:04:08;9.73;;;4.65;;
45909;SDS011;31622;55.416;37.840;2023-05-15T03:06:34;7.88;;;4.50;;
45909;SDS011;31622;55.416;37.840;2023-05-15T03:09:00;8.18;;;4.68;;
45909;SDS011;31622;55.416;37.840;2023-05-15T03:11:26;9.73;;;4.03;;
45909;SDS011;31622;55.416;37.840;2023-05-15T03:13:51;10.32;;;4.82;;
45909;SDS011;31622;55.416;37.840;2023-05-15T03:16:17;8.90;;;4.20;;
45909;SDS011;31622;55.416;37.840;2023-05-15T03:18:43;7.82;;;3.78;;
45909;SDS011;31622;55.416;37.840;2023-05-15T03:21:08;6.43;;;4.70;;
45909;SDS011;31622;55.416;37.840;2023-05-15T03:23:34;10.57;;;4.65;;
45909;SDS011;31622;55.416;37.840;2023-05-15T03:26:01;7.45;;;3.90;;
45909;SDS011;31622;55.416;37.840;2023-05-15T03:28:26;6.75;;;3.70;;
45909;SDS011;31622;55.416;37.840;2023-05-15T03:30:52;6.15;;;4.10;;
45909;SDS011;31622;55.416;37.840;2023-05-15T03:33:18;8.70;;;3.88;;
45909;SDS011;31622;55.416;37.840;2023-05-15T03:35:44;10.25;;;4.38;;
45909;SDS011;31622;55.416;37.840;2023-05-15T03:38:10;6.70;;;4.10;;
45909;SDS011;31622;55.416;37.840;2023-05-15T03:40:37;7.20;;;3.80;;
45909;SDS011;31622;55.416;37.840;2023-05-15T03:43:04;9.70;;;4.25;;
45909;SDS011;31622;55.416;37.840;2023-05-15T03:45:32;10.27;;;4.57;;
45909;SDS011;31622;55.416;37.840;2023-05-15T03:47:59;5.45;;;3.70;;
45909;SDS011;31622;55.416;37.840;2023-05-15T03:50:24;8.73;;;3.92;;
45909;SDS011;31622;55.416;37.840;2023-05-15T03:52:50;9.20;;;4.32;;
45909;SDS011;31622;55.416;37.840;2023-05-15T03:55:16;6.35;;;4.15;;
45909;SDS011;31622;55.416;37.840;2023-05-15T03:57:42;17.20;;;4.82;;
45909;SDS011;31622;55.416;37.840;2023-05-15T04:00:08;9.30;;;3.90;;
45909;SDS011;31622;55.416;37.840;2023-05-15T04:02:38;5.53;;;3.65;;
45909;SDS011;31622;55.416;37.840;2023-05-15T04:05:05;6.07;;;3.50;;
45909;SDS011;31622;55.416;37.840;2023-05-15T04:07:32;6.85;;;3.33;;
45909;SDS011;31622;55.416;37.840;2023-05-15T04:09:58;7.15;;;3.50;;
45909;SDS011;31622;55.416;37.840;2023-05-15T04:12:27;7.72;;;3.88;;
45909;SDS011;31622;55.416;37.840;2023-05-15T04:15:39;8.50;;;3.63;;
45909;SDS011;31622;55.416;37.840;2023-05-15T04:17:50;7.63;;;3.58;;
45909;SDS011;31622;55.416;37.840;2023-05-15T04:20:20;6.22;;;3.45;;
45909;SDS011;31622;55.416;37.840;2023-05-15T04:22:47;11.30;;;4.05;;
45909;SDS011;31622;55.416;37.840;2023-05-15T04:25:13;7.13;;;3.75;;
45909;SDS011;31622;55.416;37.840;2023-05-15T04:27:40;7.57;;;3.47;;
45909;SDS011;31622;55.416;37.840;2023-05-15T04:30:07;9.25;;;3.80;;
45909;SDS011;31622;55.416;37.840;2023-05-15T04:32:33;4.95;;;3.25;;
45909;SDS011;31622;55.416;37.840;2023-05-15T04:35:00;6.43;;;3.38;;
45909;SDS011;31622;55.416;37.840;2023-05-15T04:37:27;5.38;;;3.65;;
45909;SDS011;31622;55.416;37.840;2023-05-15T04:39:53;7.18;;;3.60;;
45909;SDS011;31622;55.416;37.840;2023-05-15T04:42:19;12.40;;;5.30;;
45909;SDS011;31622;55.416;37.840;2023-05-15T04:44:45;12.23;;;8.35;;
45909;SDS011;31622;55.416;37.840;2023-05-15T04:47:11;16.33;;;7.43;;
45909;SDS011;31622;55.416;37.840;2023-05-15T04:49:37;11.95;;;6.03;;
45909;SDS011;31622;55.416;37.840;2023-05-15T04:52:05;13.00;;;5.15;;
45909;SDS011;31622;55.416;37.840;2023-05-15T04:54:32;8.32;;;5.18;;
45909;SDS011;31622;55.416;37.840;2023-05-15T04:56:57;8.38;;;4.95;;
45909;SDS011;31622;55.416;37.840;2023-05-15T04:59:23;11.85;;;4.82;;
45909;SDS011;31622;55.416;37.840;2023-05-15T05:01:52;11.48;;;4.70;;
45909;SDS011;31622;55.416;37.840;2023-05-15T05:04:18;12.02;;;5.40;;
45909;SDS011;31622;55.416;37.840;2023-05-15T05:06:44;13.50;;;4.65;;
45909;SDS011;31622;55.416;37.840;2023-05-15T05:09:12;13.20;;;5.03;;
45909;SDS011;31622;55.416;37.840;2023-05-15T05:11:38;9.30;;;4.85;;
45909;SDS011;31622;55.416;37.840;2023-05-15T05:14:11;8.15;;;4.63;;
45909;SDS011;31622;55.416;37.840;2023-05-15T05:16:40;12.07;;;4.95;;
45909;SDS011;31622;55.416;37.840;2023-05-15T05:19:08;7.93;;;4.25;;
45909;SDS011;31622;55.416;37.840;2023-05-15T05:21:34;8.15;;;4.70;;
45909;SDS011;31622;55.416;37.840;2023-05-15T05:24:00;11.05;;;4.72;;
45909;SDS011;31622;55.416;37.840;2023-05-15T05:26:26;7.82;;;4.45;;
45909;SDS011;31622;55.416;37.840;2023-05-15T05:28:52;11.13;;;4.63;;
45909;SDS011;31622;55.416;37.840;2023-05-15T05:31:18;7.85;;;4.10;;
45909;SDS011;31622;55.416;37.840;2023-05-15T05:33:44;8.30;;;3.95;;
45909;SDS011;31622;55.416;37.840;2023-05-15T05:36:10;7.43;;;3.88;;
45909;SDS011;31622;55.416;37.840;2023-05-15T05:38:36;8.52;;;3.90;;
45909;SDS011;31622;55.416;37.840;2023-05-15T05:41:02;7.75;;;4.10;;
45909;SDS011;31622;55.416;37.840;2023-05-15T05:43:29;10.00;;;3.83;;
45909;SDS011;31622;55.416;37.840;2023-05-15T05:45:55;6.63;;;3.58;;
45909;SDS011;31622;55.416;37.840;2023-05-15T05:48:21;7.75;;;3.70;;
45909;SDS011;31622;55.416;37.840;2023-05-15T05:50:46;7.00;;;2.90;;
45909;SDS011;31622;55.416;37.840;2023-05-15T05:53:12;5.13;;;2.67;;
45909;SDS011;31622;55.416;37.840;2023-05-15T05:55:38;4.13;;;1.92;;
45909;SDS011;31622;55.416;37.840;2023-05-15T05:58:04;6.70;;;2.80;;
45909;SDS011;31622;55.416;37.840;2023-05-15T06:00:29;5.85;;;2.90;;
45909;SDS011;31622;55.416;37.840;2023-05-15T06:02:56;6.93;;;3.15;;
45909;SDS011;31622;55.416;37.840;2023-05-15T06:05:26;9.73;;;2.70;;
45909;SDS011;31622;55.416;37.840;2023-05-15T06:07:52;8.88;;;2.28;;
45909;SDS011;31622;55.416;37.840;2023-05-15T06:10:19;7.88;;;2.22;;
45909;SDS011;31622;55.416;37.840;2023-05-15T06:12:45;4.97;;;2.00;;
45909;SDS011;31622;55.416;37.840;2023-05-15T06:15:11;2.80;;;1.77;;
45909;SDS011;31622;55.416;37.840;2023-05-15T06:17:37;4.55;;;1.73;;
45909;SDS011;31622;55.416;37.840;2023-05-15T06:20:03;4.95;;;1.70;;
45909;SDS011;31622;55.416;37.840;2023-05-15T06:22:35;2.20;;;1.50;;
45909;SDS011;31622;55.416;37.840;2023-05-15T06:25:01;2.20;;;1.50;;
45909;SDS011;31622;55.416;37.840;2023-05-15T06:27:29;5.30;;;1.45;;
45909;SDS011;31622;55.416;37.840;2023-05-15T06:29:55;3.55;;;1.48;;
45909;SDS011;31622;55.416;37.840;2023-05-15T06:32:20;3.65;;;1.50;;
45909;SDS011;31622;55.416;37.840;2023-05-15T06:34:46;2.30;;;1.10;;
45909;SDS011;31622;55.416;37.840;2023-05-15T06:37:12;2.97;;;1.08;;
45909;SDS011;31622;55.416;37.840;2023-05-15T06:39:38;2.08;;;1.20;;
45909;SDS011;31622;55.416;37.840;2023-05-15T06:42:04;1.98;;;1.25;;
45909;SDS011;31622;55.416;37.840;2023-05-15T06:44:30;3.33;;;2.03;;
45909;SDS011;31622;55.416;37.840;2023-05-15T06:46:56;3.13;;;1.80;;
45909;SDS011;31622;55.416;37.840;2023-05-15T06:49:22;3.58;;;2.25;;
45909;SDS011;31622;55.416;37.840;2023-05-15T06:51:48;4.63;;;1.90;;
45909;SDS011;31622;55.416;37.840;2023-05-15T06:54:14;3.05;;;1.50;;
45909;SDS011;31622;55.416;37.840;2023-05-15T06:56:40;3.63;;;1.10;;
45909;SDS011;31622;55.416;37.840;2023-05-15T06:59:05;3.20;;;1.30;;
45909;SDS011;31622;55.416;37.840;2023-05-15T07:01:31;2.25;;;1.20;;
45909;SDS011;31622;55.416;37.840;2023-05-15T07:03:57;3.65;;;1.10;;
45909;SDS011;31622;55.416;37.840;2023-05-15T07:06:22;1.52;;;0.93;;
45909;SDS011;31622;55.416;37.840;2023-05-15T07:08:50;1.77;;;0.73;;
45909;SDS011;31622;55.416;37.840;2023-05-15T07:11:15;5.72;;;0.90;;
45909;SDS011;31622;55.416;37.840;2023-05-15T07:13:41;3.95;;;1.10;;
45909;SDS011;31622;55.416;37.840;2023-05-15T07:16:07;1.30;;;0.70;;
45909;SDS011;31622;55.416;37.840;2023-05-15T07:18:33;2.08;;;1.10;;
45909;SDS011;31622;55.416;37.840;2023-05-15T07:20:58;1.85;;;0.90;;
45909;SDS011;31622;55.416;37.840;2023-05-15T07:23:24;2.03;;;0.70;;
45909;SDS011;31622;55.416;37.840;2023-05-15T07:25:51;5.40;;;1.23;;
45909;SDS011;31622;55.416;37.840;2023-05-15T07:28:18;1.42;;;0.90;;
45909;SDS011;31622;55.416;37.840;2023-05-15T07:30:44;1.73;;;0.70;;
45909;SDS011;31622;55.416;37.840;2023-05-15T07:33:09;2.45;;;0.82;;
45909;SDS011;31622;55.416;37.840;2023-05-15T07:35:35;8.45;;;1.10;;
45909;SDS011;31622;55.416;37.840;2023-05-15T07:38:01;1.58;;;0.70;;
45909;SDS011;31622;55.416;37.840;2023-05-15T07:40:26;2.88;;;0.70;;
45909;SDS011;31622;55.416;37.840;2023-05-15T07:42:52;3.75;;;0.90;;
45909;SDS011;31622;55.416;37.840;2023-05-15T07:45:18;1.73;;;0.80;;
45909;SDS011;31622;55.416;37.840;2023-05-15T07:47:44;2.25;;;0.75;;
45909;SDS011;31622;55.416;37.840;2023-05-15T07:50:11;2.55;;;0.70;;
45909;SDS011;31622;55.416;37.840;2023-05-15T07:52:37;2.10;;;1.30;;
45909;SDS011;31622;55.416;37.840;2023-05-15T07:55:03;1.40;;;0.70;;
45909;SDS011;31622;55.416;37.840;2023-05-15T07:57:30;1.70;;;0.95;;
45909;SDS011;31622;55.416;37.840;2023-05-15T07:59:56;2.38;;;0.65;;
45909;SDS011;31622;55.416;37.840;2023-05-15T08:02:22;2.17;;;1.00;;
45909;SDS011;31622;55.416;37.840;2023-05-15T08:04:48;1.75;;;0.80;;
45909;SDS011;31622;55.416;37.840;2023-05-15T08:07:13;3.17;;;0.90;;
45909;SDS011;31622;55.416;37.840;2023-05-15T08:09:39;1.00;;;0.50;;
45909;SDS011;31622;55.416;37.840;2023-05-15T08:12:15;1.85;;;0.70;;
45909;SDS011;31622;55.416;37.840;2023-05-15T08:17:13;3.38;;;0.80;;
45909;SDS011;31622;55.416;37.840;2023-05-15T08:19:39;2.50;;;1.20;;
45909;SDS011;31622;55.416;37.840;2023-05-15T08:22:05;17.02;;;3.95;;
45909;SDS011;31622;55.416;37.840;2023-05-15T08:24:31;17.00;;;5.82;;
45909;SDS011;31622;55.416;37.840;2023-05-15T08:26:57;27.65;;;6.00;;
45909;SDS011;31622;55.416;37.840;2023-05-15T08:29:22;19.92;;;4.78;;
45909;SDS011;31622;55.416;37.840;2023-05-15T08:31:48;20.33;;;4.18;;
45909;SDS011;31622;55.416;37.840;2023-05-15T08:34:14;16.17;;;4.15;;
45909;SDS011;31622;55.416;37.840;2023-05-15T08:36:40;15.55;;;3.90;;
45909;SDS011;31622;55.416;37.840;2023-05-15T08:39:06;17.42;;;3.78;;
45909;SDS011;31622;55.416;37.840;2023-05-15T08:41:36;16.85;;;4.47;;
45909;SDS011;31622;55.416;37.840;2023-05-15T08:44:05;27.17;;;6.95;;
45909;SDS011;31622;55.416;37.840;2023-05-15T08:46:33;21.23;;;6.18;;
45909;SDS011;31622;55.416;37.840;2023-05-15T08:49:01;50.95;;;12.30;;
45909;SDS011;31622;55.416;37.840;2023-05-15T08:51:42;73.15;;;19.73;;
45909;SDS011;31622;55.416;37.840;2023-05-15T08:54:08;78.13;;;18.65;;
45909;SDS011;31622;55.416;37.840;2023-05-15T08:56:34;73.88;;;18.45;;
45909;SDS011;31622;55.416;37.840;2023-05-15T08:59:00;46.30;;;12.05;;
45909;SDS011;31622;55.416;37.840;2023-05-15T09:01:27;50.58;;;13.70;;
45909;SDS011;31622;55.416;37.840;2023-05-15T09:03:52;43.17;;;11.23;;
45909;SDS011;31622;55.416;37.840;2023-05-15T09:06:18;34.38;;;9.95;;
45909;SDS011;31622;55.416;37.840;2023-05-15T09:08:45;34.97;;;9.30;;
45909;SDS011;31622;55.416;37.840;2023-05-15T09:11:11;14.18;;;4.00;;
45909;SDS011;31622;55.416;37.840;2023-05-15T09:13:38;12.38;;;3.30;;
45909;SDS011;31622;55.416;37.840;2023-05-15T09:16:04;13.52;;;3.95;;
45909;SDS011;31622;55.416;37.840;2023-05-15T09:18:30;9.63;;;2.95;;
45909;SDS011;31622;55.416;37.840;2023-05-15T09:21:06;14.05;;;3.47;;
45909;SDS011;31622;55.416;37.840;2023-05-15T09:26:42;18.30;;;4.65;;
45909;SDS011;31622;55.416;37.840;2023-05-15T09:29:10;13.65;;;3.92;;
45909;SDS011;31622;55.416;37.840;2023-05-15T09:31:36;9.15;;;3.63;;
45909;SDS011;31622;55.416;37.840;2023-05-15T09:34:02;7.38;;;2.53;;
45909;SDS011;31622;55.416;37.840;2023-05-15T09:36:30;8.15;;;2.55;;
45909;SDS011;31622;55.416;37.840;2023-05-15T09:38:59;7.88;;;2.28;;
45909;SDS011;31622;55.416;37.840;2023-05-15T09:41:26;6.15;;;2.08;;
45909;SDS011;31622;55.416;37.840;2023-05-15T09:43:52;5.50;;;2.05;;
45909;SDS011;31622;55.416;37.840;2023-05-15T09:46:21;4.78;;;2.00;;
45909;SDS011;31622;55.416;37.840;2023-05-15T09:48:47;4.70;;;2.08;;
45909;SDS011;31622;55.416;37.840;2023-05-15T09:51:17;7.47;;;2.40;;
45909;SDS011;31622;55.416;37.840;2023-05-15T09:53:54;6.63;;;2.15;;
45909;SDS011;31622;55.416;37.840;2023-05-15T09:56:20;5.70;;;2.45;;
45909;SDS011;31622;55.416;37.840;2023-05-15T09:58:53;9.73;;;1.85;;
45909;SDS011;31622;55.416;37.840;2023-05-15T10:01:20;5.15;;;1.50;;
45909;SDS011;31622;55.416;37.840;2023-05-15T10:04:00;4.97;;;1.20;;
45909;SDS011;31622;55.416;37.840;2023-05-15T10:06:28;2.42;;;1.30;;
45909;SDS011;31622;55.416;37.840;2023-05-15T10:09:00;2.95;;;1.05;;
45909;SDS011;31622;55.416;37.840;2023-05-15T10:11:27;5.00;;;1.40;;
45909;SDS011;31622;55.416;37.840;2023-05-15T10:14:06;2.15;;;1.20;;
45909;SDS011;31622;55.416;37.840;2023-05-15T10:16:34;2.30;;;1.23;;
45909;SDS011;31622;55.416;37.840;2023-05-15T10:19:05;6.28;;;1.45;;
45909;SDS011;31622;55.416;37.840;2023-05-15T10:21:33;1.67;;;1.00;;
45909;SDS011;31622;55.416;37.840;2023-05-15T10:24:00;4.50;;;1.00;;
45909;SDS011;31622;55.416;37.840;2023-05-15T10:29:07;1.75;;;1.10;;
45909;SDS011;31622;55.416;37.840;2023-05-15T10:31:33;2.15;;;1.05;;
45909;SDS011;31622;55.416;37.840;2023-05-15T10:34:01;2.92;;;1.20;;
45909;SDS011;31622;55.416;37.840;2023-05-15T10:36:30;2.97;;;1.10;;
45909;SDS011;31622;55.416;37.840;2023-05-15T10:38:58;5.82;;;1.08;;
45909;SDS011;31622;55.416;37.840;2023-05-15T10:41:26;2.67;;;1.23;;
45909;SDS011;31622;55.416;37.840;2023-05-15T10:43:54;3.15;;;1.00;;
45909;SDS011;31622;55.416;37.840;2023-05-15T10:46:20;1.58;;;0.95;;
45909;SDS011;31622;55.416;37.840;2023-05-15T10:48:46;1.77;;;0.90;;
45909;SDS011;31622;55.416;37.840;2023-05-15T10:51:13;3.40;;;1.80;;
45909;SDS011;31622;55.416;37.840;2023-05-15T10:53:41;1.83;;;1.50;;
45909;SDS011;31622;55.416;37.840;2023-05-15T10:56:11;4.88;;;1.30;;
45909;SDS011;31622;55.416;37.840;2023-05-15T11:01:28;3.65;;;1.08;;
45909;SDS011;31622;55.416;37.840;2023-05-15T11:04:17;1.80;;;0.98;;
45909;SDS011;31622;55.416;37.840;2023-05-15T11:06:44;4.22;;;1.20;;
45909;SDS011;31622;55.416;37.840;2023-05-15T11:11:56;3.13;;;1.20;;
45909;SDS011;31622;55.416;37.840;2023-05-15T11:14:23;4.22;;;1.10;;
45909;SDS011;31622;55.416;37.840;2023-05-15T11:19:21;3.10;;;1.00;;
45909;SDS011;31622;55.416;37.840;2023-05-15T11:21:57;3.67;;;0.85;;
45909;SDS011;31622;55.416;37.840;2023-05-15T11:24:28;1.83;;;0.88;;
45909;SDS011;31622;55.416;37.840;2023-05-15T11:27:00;3.90;;;0.90;;
45909;SDS011;31622;55.416;37.840;2023-05-15T11:29:27;4.38;;;1.23;;
45909;SDS011;31622;55.416;37.840;2023-05-15T11:31:53;6.88;;;1.38;;
45909;SDS011;31622;55.416;37.840;2023-05-15T11:34:32;2.08;;;1.00;;
45909;SDS011;31622;55.416;37.840;2023-05-15T11:36:58;3.53;;;1.00;;
45909;SDS011;31622;55.416;37.840;2023-05-15T11:39:27;3.28;;;0.80;;
45909;SDS011;31622;55.416;37.840;2023-05-15T11:41:53;3.35;;;1.02;;
45909;SDS011;31622;55.416;37.840;2023-05-15T11:44:22;1.95;;;0.77;;
45909;SDS011;31622;55.416;37.840;2023-05-15T11:46:49;2.97;;;1.10;;
45909;SDS011;31622;55.416;37.840;2023-05-15T11:49:18;2.75;;;0.98;;
45909;SDS011;31622;55.416;37.840;2023-05-15T11:51:46;3.22;;;1.10;;
45909;SDS011;31622;55.416;37.840;2023-05-15T11:54:12;4.18;;;1.20;;
45909;SDS011;31622;55.416;37.840;2023-05-15T11:56:42;3.00;;;1.05;;
45909;SDS011;31622;55.416;37.840;2023-05-15T11:59:12;9.40;;;1.20;;
45909;SDS011;31622;55.416;37.840;2023-05-15T12:01:41;3.45;;;1.10;;
45909;SDS011;31622;55.416;37.840;2023-05-15T12:04:15;21.63;;;1.85;;
45909;SDS011;31622;55.416;37.840;2023-05-15T12:06:42;59.60;;;4.43;;
45909;SDS011;31622;55.416;37.840;2023-05-15T12:09:17;16.65;;;1.88;;
45909;SDS011;31622;55.416;37.840;2023-05-15T12:11:50;8.13;;;1.67;;
45909;SDS011;31622;55.416;37.840;2023-05-15T12:14:16;4.88;;;1.10;;
45909;SDS011;31622;55.416;37.840;2023-05-15T12:16:42;3.03;;;1.33;;
45909;SDS011;31622;55.416;37.840;2023-05-15T12:19:08;5.75;;;1.15;;
45909;SDS011;31622;55.416;37.840;2023-05-15T12:21:34;5.28;;;1.20;;
45909;SDS011;31622;55.416;37.840;2023-05-15T12:24:09;5.05;;;1.10;;
45909;SDS011;31622;55.416;37.840;2023-05-15T12:26:36;4.22;;;0.90;;
45909;SDS011;31622;55.416;37.840;2023-05-15T12:29:02;2.33;;;1.00;;
45909;SDS011;31622;55.416;37.840;2023-05-15T12:31:28;4.40;;;1.52;;
45909;SDS011;31622;55.416;37.840;2023-05-15T12:33:54;4.85;;;1.00;;
45909;SDS011;31622;55.416;37.840;2023-05-15T12:36:20;4.60;;;1.10;;
45909;SDS011;31622;55.416;37.840;2023-05-15T12:38:47;1.98;;;0.82;;
45909;SDS011;31622;55.416;37.840;2023-05-15T12:41:13;2.85;;;0.95;;
45909;SDS011;31622;55.416;37.840;2023-05-15T12:43:39;1.70;;;0.80;;
45909;SDS011;31622;55.416;37.840;2023-05-15T12:46:05;2.25;;;1.05;;
45909;SDS011;31622;55.416;37.840;2023-05-15T12:48:31;1.88;;;0.85;;
45909;SDS011;31622;55.416;37.840;2023-05-15T12:51:02;3.20;;;0.75;;
45909;SDS011;31622;55.416;37.840;2023-05-15T12:53:30;3.90;;;0.90;;
45909;SDS011;31622;55.416;37.840;2023-05-15T12:55:56;2.78;;;1.13;;
45909;SDS011;31622;55.416;37.840;2023-05-15T12:58:22;2.63;;;1.00;;
45909;SDS011;31622;55.416;37.840;2023-05-15T13:00:48;4.22;;;0.93;;
45909;SDS011;31622;55.416;37.840;2023-05-15T13:03:18;1.00;;;0.70;;
45909;SDS011;31622;55.416;37.840;2023-05-15T13:05:45;2.65;;;1.10;;
45909;SDS011;31622;55.416;37.840;2023-05-15T13:08:15;2.22;;;1.00;;
45909;SDS011;31622;55.416;37.840;2023-05-15T13:10:41;1.83;;;0.90;;
45909;SDS011;31622;55.416;37.840;2023-05-15T13:13:07;3.53;;;1.00;;
45909;SDS011;31622;55.416;37.840;2023-05-15T13:15:36;3.38;;;1.00;;
45909;SDS011;31622;55.416;37.840;2023-05-15T13:18:04;2.85;;;0.90;;
45909;SDS011;31622;55.416;37.840;2023-05-15T13:20:31;1.30;;;0.70;;
45909;SDS011;31622;55.416;37.840;2023-05-15T13:23:07;1.95;;;0.80;;
45909;SDS011;31622;55.416;37.840;2023-05-15T13:25:33;1.83;;;0.80;;
45909;SDS011;31622;55.416;37.840;2023-05-15T13:28:01;3.45;;;1.00;;
45909;SDS011;31622;55.416;37.840;2023-05-15T13:30:28;2.10;;;1.00;;
45909;SDS011;31622;55.416;37.840;2023-05-15T13:32:54;2.88;;;1.25;;
45909;SDS011;31622;55.416;37.840;2023-05-15T13:35:20;2.72;;;1.45;;
45909;SDS011;31622;55.416;37.840;2023-05-15T13:37:46;2.55;;;1.10;;
45909;SDS011;31622;55.416;37.840;2023-05-15T13:40:12;1.98;;;0.88;;
45909;SDS011;31622;55.416;37.840;2023-05-15T13:42:41;3.45;;;1.10;;
45909;SDS011;31622;55.416;37.840;2023-05-15T13:45:08;2.45;;;1.15;;
45909;SDS011;31622;55.416;37.840;2023-05-15T13:47:35;6.00;;;1.38;;
45909;SDS011;31622;55.416;37.840;2023-05-15T13:50:04;3.97;;;1.00;;
45909;SDS011;31622;55.416;37.840;2023-05-15T13:52:34;4.82;;;1.30;;
45909;SDS011;31622;55.416;37.840;2023-05-15T13:55:00;2.53;;;1.40;;
45909;SDS011;31622;55.416;37.840;2023-05-15T13:57:25;3.78;;;1.00;;
45909;SDS011;31622;55.416;37.840;2023-05-15T13:59:51;3.13;;;1.13;;
45909;SDS011;31622;55.416;37.840;2023-05-15T14:02:17;1.90;;;1.00;;
45909;SDS011;31622;55.416;37.840;2023-05-15T14:04:43;2.83;;;1.65;;
45909;SDS011;31622;55.416;37.840;2023-05-15T14:07:10;5.93;;;1.42;;
45909;SDS011;31622;55.416;37.840;2023-05-15T14:09:36;3.60;;;1.85;;
45909;SDS011;31622;55.416;37.840;2023-05-15T14:12:01;2.72;;;1.48;;
45909;SDS011;31622;55.416;37.840;2023-05-15T14:14:27;1.50;;;0.90;;
45909;SDS011;31622;55.416;37.840;2023-05-15T14:16:53;5.85;;;1.70;;
45909;SDS011;31622;55.416;37.840;2023-05-15T14:19:19;6.47;;;1.23;;
45909;SDS011;31622;55.416;37.840;2023-05-15T14:21:44;2.80;;;1.05;;
45909;SDS011;31622;55.416;37.840;2023-05-15T14:24:10;4.68;;;1.50;;
45909;SDS011;31622;55.416;37.840;2023-05-15T14:26:36;5.55;;;3.03;;
45909;SDS011;31622;55.416;37.840;2023-05-15T14:29:02;3.15;;;1.40;;
45909;SDS011;31622;55.416;37.840;2023-05-15T14:31:28;9.52;;;3.40;;
45909;SDS011;31622;55.416;37.840;2023-05-15T14:33:53;10.70;;;2.58;;
45909;SDS011;31622;55.416;37.840;2023-05-15T14:36:19;12.38;;;2.20;;
45909;SDS011;31622;55.416;37.840;2023-05-15T14:38:45;11.63;;;1.92;;
45909;SDS011;31622;55.416;37.840;2023-05-15T14:41:13;5.35;;;1.60;;
45909;SDS011;31622;55.416;37.840;2023-05-15T14:43:39;2.38;;;1.20;;
45909;SDS011;31622;55.416;37.840;2023-05-15T14:46:05;5.13;;;1.40;;
45909;SDS011;31622;55.416;37.840;2023-05-15T14:48:30;4.22;;;1.60;;
45909;SDS011;31622;55.416;37.840;2023-05-15T14:50:58;8.20;;;1.65;;
45909;SDS011;31622;55.416;37.840;2023-05-15T14:53:24;2.83;;;1.30;;
45909;SDS011;31622;55.416;37.840;2023-05-15T14:55:50;6.00;;;1.52;;
45909;SDS011;31622;55.416;37.840;2023-05-15T14:58:16;3.13;;;1.02;;
45909;SDS011;31622;55.416;37.840;2023-05-15T15:00:42;3.03;;;1.20;;
45909;SDS011;31622;55.416;37.840;2023-05-15T15:03:08;3.47;;;1.20;;